Terminal Aerodrome Forecast
Issued by NWS

Home | Current Version | Previous Version | Text Only | Print | Product List | Glossary On
Versions: 1 2 3 4 5 6 7 8 9 10 11 12
000
FTUS45 KRIW 242300
TAFLND
TAF
KLND 242322Z 2500/2524 15007KT P6SM BKN150
     FM250100 20009G18KT P6SM VCSH SCT120 BKN200
     FM250700 VRB06KT P6SM SCT050 OVC090
     FM251100 02008KT 5SM -SN OVC030
     FM251300 02007KT 1/2SM SN OVC002=

USA.gov is the U.S. government's official web portal to all federal, state and local government web resources and services.